Time;durP1;ratioP1;P1;durP2;ratioP2;P2;SDS_P1;SDS_P2;PMS_P1;PMS_P2;Temp;Humidity;BMP_temperature;BMP_pressure;BME280_temperature;BME280_humidity;BME280_pressure;Samples;Min_cycle;Max_cycle;Signal;HPM_P1;HPM_P2
2023/06/16 00:01:01;;;;;;;57.60;2.53;;;;;;;;;;5072604;28;20588;-68
2023/06/16 00:03:28;;;;;;;56.93;2.13;;;;;;;;;;5072388;28;20463;-68
2023/06/16 00:05:55;;;;;;;57.50;2.63;;;;;;;;;;5072480;28;20939;-68
2023/06/16 00:08:23;;;;;;;57.30;2.50;;;;;;;;;;5072566;28;20766;-68
2023/06/16 00:10:51;;;;;;;57.27;2.37;;;;;;;;;;5071484;28;20996;-68
2023/06/16 00:13:19;;;;;;;56.77;2.50;;;;;;;;;;5072277;28;20467;-68
2023/06/16 00:15:47;;;;;;;57.27;2.70;;;;;;;;;;5072390;28;20447;-68
2023/06/16 00:18:14;;;;;;;61.13;3.47;;;;;;;;;;5072294;28;20479;-68
2023/06/16 00:20:41;;;;;;;57.90;3.50;;;;;;;;;;5071356;28;20516;-68
2023/06/16 00:23:16;;;;;;;57.10;2.40;;;;;;;;;;5071847;28;20477;-68
2023/06/16 00:25:43;;;;;;;58.27;2.70;;;;;;;;;;5072041;28;20447;-68
2023/06/16 00:28:10;;;;;;;56.93;2.50;;;;;;;;;;5072013;28;20444;-68
2023/06/16 00:30:37;;;;;;;57.17;2.53;;;;;;;;;;5070880;28;20936;-68
2023/06/16 00:33:06;;;;;;;57.20;2.80;;;;;;;;;;5071840;28;20832;-68
2023/06/16 00:35:33;;;;;;;57.30;2.40;;;;;;;;;;5072069;28;20455;-68
2023/06/16 00:38:00;;;;;;;57.10;2.63;;;;;;;;;;5071888;28;20479;-68
2023/06/16 00:40:27;;;;;;;57.17;2.40;;;;;;;;;;5071136;28;20465;-68
2023/06/16 00:42:58;;;;;;;57.27;2.40;;;;;;;;;;5071798;28;20463;-68
2023/06/16 00:45:25;;;;;;;57.73;3.23;;;;;;;;;;5072036;28;20455;-68
2023/06/16 00:47:52;;;;;;;57.10;2.37;;;;;;;;;;5071943;28;20452;-68
2023/06/16 00:50:21;;;;;;;57.30;2.60;;;;;;;;;;5070689;28;20952;-68
2023/06/16 00:52:48;;;;;;;57.20;2.67;;;;;;;;;;5071779;28;20578;-68
2023/06/16 00:55:15;;;;;;;56.97;2.07;;;;;;;;;;5071694;28;20446;-68
2023/06/16 00:57:42;;;;;;;57.30;2.40;;;;;;;;;;5071540;28;20490;-68
2023/06/16 01:00:11;;;;;;;56.93;2.20;;;;;;;;;;5070908;28;20447;-68
2023/06/16 01:02:38;;;;;;;57.20;2.50;;;;;;;;;;5071462;28;20467;-68
2023/06/16 01:05:07;;;;;;;56.87;2.10;;;;;;;;;;5071152;28;20542;-68
2023/06/16 01:07:39;;;;;;;57.17;2.17;;;;;;;;;;5071311;28;20529;-68
2023/06/16 01:10:09;;;;;;;56.77;2.30;;;;;;;;;;5070713;28;20443;-68
2023/06/16 01:12:40;;;;;;;57.80;2.93;;;;;;;;;;5071416;28;20464;-68
2023/06/16 01:15:09;;;;;;;57.10;2.20;;;;;;;;;;5071447;28;20435;-68
2023/06/16 01:17:39;;;;;;;57.03;2.20;;;;;;;;;;5071015;28;20490;-69
2023/06/16 01:20:10;;;;;;;57.30;2.13;;;;;;;;;;5070400;28;21014;-68
2023/06/16 01:22:53;;;;;;;57.60;2.57;;;;;;;;;;5071264;28;20467;-68
2023/06/16 01:25:22;;;;;;;57.17;2.37;;;;;;;;;;5071395;28;20463;-68
2023/06/16 01:27:51;;;;;;;57.07;2.43;;;;;;;;;;5067656;28;20455;-68
2023/06/16 01:30:19;;;;;;;57.40;2.40;;;;;;;;;;5070584;28;20459;-68
2023/06/16 01:32:48;;;;;;;58.70;3.07;;;;;;;;;;5070915;28;20474;-68
2023/06/16 01:35:16;;;;;;;57.30;2.43;;;;;;;;;;5071172;28;20455;-68
2023/06/16 01:37:44;;;;;;;56.87;2.17;;;;;;;;;;5070842;28;20490;-68
2023/06/16 01:40:12;;;;;;;56.97;2.10;;;;;;;;;;5070165;28;20954;-68
2023/06/16 01:42:40;;;;;;;56.93;2.23;;;;;;;;;;5073948;28;20988;-68
2023/06/16 01:45:08;;;;;;;60.60;3.90;;;;;;;;;;5075288;28;20449;-68
2023/06/16 01:47:36;;;;;;;56.93;2.20;;;;;;;;;;5074918;28;20451;-68
2023/06/16 01:50:03;;;;;;;57.17;2.40;;;;;;;;;;5074600;28;20534;-69
2023/06/16 01:52:30;;;;;;;57.17;2.20;;;;;;;;;;5075171;28;20490;-68
2023/06/16 01:54:57;;;;;;;56.90;2.30;;;;;;;;;;5065354;28;20452;-68
2023/06/16 01:57:24;;;;;;;57.30;2.17;;;;;;;;;;5074952;28;20508;-68
2023/06/16 01:59:56;;;;;;;57.40;2.93;;;;;;;;;;5074271;28;20451;-68
2023/06/16 02:02:25;;;;;;;56.97;2.30;;;;;;;;;;5075043;28;20432;-68
2023/06/16 02:04:53;;;;;;;57.07;2.27;;;;;;;;;;5074434;28;20447;-68
2023/06/16 02:07:21;;;;;;;56.97;2.33;;;;;;;;;;5074809;28;20443;-69
2023/06/16 02:09:50;;;;;;;57.40;2.93;;;;;;;;;;5073993;28;20443;-68
2023/06/16 02:12:17;;;;;;;57.20;2.00;;;;;;;;;;5074814;28;20898;-68
2023/06/16 02:14:45;;;;;;;57.07;2.40;;;;;;;;;;5074780;28;20455;-68
2023/06/16 02:17:13;;;;;;;56.87;2.10;;;;;;;;;;5074240;28;20570;-68
2023/06/16 02:19:40;;;;;;;57.03;2.40;;;;;;;;;;5073675;28;20459;-68
2023/06/16 02:22:07;;;;;;;57.20;2.80;;;;;;;;;;5074478;28;20447;-68
2023/06/16 02:24:35;;;;;;;57.87;2.50;;;;;;;;;;5074285;28;20462;-68
2023/06/16 02:27:03;;;;;;;58.03;2.40;;;;;;;;;;5074543;28;20451;-68
2023/06/16 02:29:31;;;;;;;56.93;2.10;;;;;;;;;;5073567;28;20550;-68
2023/06/16 02:31:58;;;;;;;57.20;2.60;;;;;;;;;;5074301;28;20455;-68
2023/06/16 02:34:26;;;;;;;57.27;2.63;;;;;;;;;;5074346;28;20478;-68
2023/06/16 02:36:53;;;;;;;56.73;2.10;;;;;;;;;;5073952;28;20454;-68
2023/06/16 02:39:21;;;;;;;57.17;2.40;;;;;;;;;;5073562;28;20880;-68
2023/06/16 02:41:49;;;;;;;56.87;2.40;;;;;;;;;;5074320;28;20451;-68
2023/06/16 02:44:16;;;;;;;57.23;2.53;;;;;;;;;;5074035;28;20877;-68
2023/06/16 02:46:43;;;;;;;57.17;2.10;;;;;;;;;;5073910;28;20454;-68
2023/06/16 02:49:11;;;;;;;57.00;2.40;;;;;;;;;;5073295;28;20447;-68
2023/06/16 02:51:40;;;;;;;57.20;2.67;;;;;;;;;;5073956;28;20447;-68
2023/06/16 02:54:07;;;;;;;57.00;2.10;;;;;;;;;;5073683;28;20885;-68
2023/06/16 02:56:34;;;;;;;57.27;2.43;;;;;;;;;;5073653;28;20524;-68
2023/06/16 02:59:01;;;;;;;57.20;2.43;;;;;;;;;;5073072;28;20490;-68
2023/06/16 03:01:30;;;;;;;56.97;2.27;;;;;;;;;;5073611;28;20479;-68
2023/06/16 03:03:58;;;;;;;57.30;2.40;;;;;;;;;;5073676;28;20468;-68
2023/06/16 03:06:29;;;;;;;57.50;2.57;;;;;;;;;;5073759;28;20451;-68
2023/06/16 03:08:57;;;;;;;57.00;2.47;;;;;;;;;;5073054;28;20508;-68
2023/06/16 03:11:24;;;;;;;57.17;2.27;;;;;;;;;;5073405;28;20827;-68
2023/06/16 03:13:51;;;;;;;58.10;3.07;;;;;;;;;;5073603;28;20471;-68
2023/06/16 03:16:20;;;;;;;56.67;2.00;;;;;;;;;;5073554;28;20474;-68
2023/06/16 03:18:47;;;;;;;57.47;2.80;;;;;;;;;;5072822;28;20483;-68
2023/06/16 03:21:16;;;;;;;57.20;2.47;;;;;;;;;;5073252;28;20451;-68
2023/06/16 03:23:43;;;;;;;57.50;2.50;;;;;;;;;;5073223;28;20470;-68
2023/06/16 03:26:12;;;;;;;57.60;2.53;;;;;;;;;;5071207;28;20464;-68
2023/06/16 03:28:39;;;;;;;57.20;2.83;;;;;;;;;;5072083;28;20448;-68
2023/06/16 03:31:06;;;;;;;56.97;2.13;;;;;;;;;;5073282;28;20459;-68
2023/06/16 03:33:33;;;;;;;57.30;2.03;;;;;;;;;;5073165;28;20467;-68
2023/06/16 03:36:00;;;;;;;57.17;2.20;;;;;;;;;;5073030;28;20447;-68
2023/06/16 03:38:27;;;;;;;57.60;3.03;;;;;;;;;;5072643;28;20483;-68
2023/06/16 03:40:54;;;;;;;56.97;2.10;;;;;;;;;;5072625;28;20455;-68
2023/06/16 03:43:23;;;;;;;57.33;2.67;;;;;;;;;;5072987;28;20559;-68
2023/06/16 03:45:50;;;;;;;57.33;2.40;;;;;;;;;;5072892;28;20447;-68
2023/06/16 03:48:17;;;;;;;57.50;3.00;;;;;;;;;;5072685;28;20440;-68
2023/06/16 03:50:45;;;;;;;57.37;2.73;;;;;;;;;;5071945;28;20458;-68
2023/06/16 03:53:12;;;;;;;57.10;2.50;;;;;;;;;;5072426;28;20833;-68
2023/06/16 03:55:39;;;;;;;56.97;2.00;;;;;;;;;;5072582;28;20455;-68
2023/06/16 03:58:07;;;;;;;56.93;2.50;;;;;;;;;;5072813;28;20490;-68
2023/06/16 04:00:35;;;;;;;57.60;2.93;;;;;;;;;;5072195;28;20447;-68
2023/06/16 04:03:03;;;;;;;57.50;2.87;;;;;;;;;;5072371;28;20463;-68
2023/06/16 04:05:31;;;;;;;56.93;2.60;;;;;;;;;;5071934;28;20447;-68
2023/06/16 04:07:58;;;;;;;57.43;2.50;;;;;;;;;;5072637;28;20447;-68
2023/06/16 04:10:25;;;;;;;56.77;2.23;;;;;;;;;;5071701;28;20448;-68
2023/06/16 04:12:52;;;;;;;56.97;2.10;;;;;;;;;;5072464;28;20475;-68
2023/06/16 04:15:19;;;;;;;56.90;2.30;;;;;;;;;;5072546;28;20454;-68
2023/06/16 04:17:47;;;;;;;56.90;2.00;;;;;;;;;;5072643;28;20446;-68
2023/06/16 04:20:14;;;;;;;57.03;2.10;;;;;;;;;;5071243;28;20447;-68
2023/06/16 04:22:42;;;;;;;57.60;2.87;;;;;;;;;;5072232;28;20471;-68
2023/06/16 04:25:11;;;;;;;58.03;2.50;;;;;;;;;;5072271;28;20455;-68
2023/06/16 04:27:38;;;;;;;57.27;2.67;;;;;;;;;;5072209;28;20475;-68
2023/06/16 04:30:06;;;;;;;57.77;2.57;;;;;;;;;;5071261;28;20530;-69
2023/06/16 04:32:34;;;;;;;57.30;2.97;;;;;;;;;;5072306;28;20538;-69
2023/06/16 04:35:04;;;;;;;57.13;2.30;;;;;;;;;;5072022;28;20459;-68
2023/06/16 04:37:31;;;;;;;57.07;2.60;;;;;;;;;;5071696;28;20455;-68
2023/06/16 04:39:58;;;;;;;57.20;2.30;;;;;;;;;;5071190;28;20832;-68
2023/06/16 04:42:26;;;;;;;56.97;2.20;;;;;;;;;;5071625;28;20448;-68
2023/06/16 04:44:53;;;;;;;56.97;2.13;;;;;;;;;;5071552;28;20448;-68
2023/06/16 04:47:20;;;;;;;57.37;2.63;;;;;;;;;;5071339;28;20451;-68
2023/06/16 04:49:47;;;;;;;57.10;2.50;;;;;;;;;;5070791;28;20454;-68
2023/06/16 04:52:15;;;;;;;57.20;2.60;;;;;;;;;;5071689;28;20821;-68
2023/06/16 04:54:42;;;;;;;56.93;2.03;;;;;;;;;;5071775;28;20463;-68
2023/06/16 04:57:09;;;;;;;57.00;2.47;;;;;;;;;;5071350;28;20459;-68
2023/06/16 04:59:36;;;;;;;56.97;2.70;;;;;;;;;;5070516;28;20492;-68
2023/06/16 05:02:03;;;;;;;56.90;2.23;;;;;;;;;;5071629;28;20439;-68
2023/06/16 05:04:31;;;;;;;57.50;3.50;;;;;;;;;;5071676;28;20471;-69
2023/06/16 05:06:58;;;;;;;56.77;2.10;;;;;;;;;;5071515;28;20455;-68
2023/06/16 05:09:27;;;;;;;57.37;2.47;;;;;;;;;;5070902;28;20444;-68
2023/06/16 05:11:54;;;;;;;56.77;2.20;;;;;;;;;;5071537;28;20615;-68
2023/06/16 05:14:21;;;;;;;56.90;2.30;;;;;;;;;;5071058;28;20505;-68
2023/06/16 05:16:48;;;;;;;57.57;2.90;;;;;;;;;;5070529;28;20451;-68
2023/06/16 05:19:15;;;;;;;57.40;2.60;;;;;;;;;;5070518;28;20490;-68
2023/06/16 05:21:42;;;;;;;58.07;3.63;;;;;;;;;;5071473;28;20455;-68
2023/06/16 05:24:09;;;;;;;57.20;2.83;;;;;;;;;;5071294;28;20470;-68
2023/06/16 05:26:38;;;;;;;56.87;2.20;;;;;;;;;;5068271;28;20452;-69
2023/06/16 05:29:05;;;;;;;57.00;2.30;;;;;;;;;;5070443;28;20447;-68
2023/06/16 05:31:32;;;;;;;56.80;2.30;;;;;;;;;;5071194;28;20501;-68
2023/06/16 05:34:03;;;;;;;56.90;2.33;;;;;;;;;;5070880;28;20463;-68
2023/06/16 05:36:31;;;;;;;59.10;3.50;;;;;;;;;;5070879;28;20452;-68
2023/06/16 05:38:58;;;;;;;57.10;2.30;;;;;;;;;;5070179;28;21011;-68
2023/06/16 05:41:26;;;;;;;57.23;2.47;;;;;;;;;;5070715;28;20447;-68
2023/06/16 05:43:55;;;;;;;56.83;2.23;;;;;;;;;;5071060;28;20475;-68
2023/06/16 05:46:23;;;;;;;57.20;2.00;;;;;;;;;;5071106;28;20490;-68
2023/06/16 05:48:50;;;;;;;56.80;2.40;;;;;;;;;;5070326;28;20443;-68
2023/06/16 05:51:17;;;;;;;57.70;2.53;;;;;;;;;;5070844;28;20944;-68
2023/06/16 05:53:44;;;;;;;56.70;2.13;;;;;;;;;;5070608;28;20467;-68
2023/06/16 05:56:11;;;;;;;56.90;2.17;;;;;;;;;;5070427;28;20459;-68
2023/06/16 05:58:38;;;;;;;57.10;2.33;;;;;;;;;;5070192;28;20494;-68
2023/06/16 06:01:07;;;;;;;56.73;2.17;;;;;;;;;;5071124;28;20443;-68
2023/06/16 06:03:34;;;;;;;57.70;2.80;;;;;;;;;;5070763;28;20468;-68
2023/06/16 06:06:01;;;;;;;57.27;3.40;;;;;;;;;;5070754;28;20449;-69
2023/06/16 06:08:28;;;;;;;57.00;2.30;;;;;;;;;;5070647;28;20451;-68
2023/06/16 06:10:56;;;;;;;57.20;2.50;;;;;;;;;;5070207;28;20447;-68
2023/06/16 06:13:23;;;;;;;57.40;2.57;;;;;;;;;;5070627;28;20467;-71
2023/06/16 06:15:50;;;;;;;56.77;2.20;;;;;;;;;;5070546;28;20448;-72
2023/06/16 06:18:19;;;;;;;57.10;2.30;;;;;;;;;;5070691;28;20946;-71
2023/06/16 06:20:46;;;;;;;57.23;2.10;;;;;;;;;;5069921;28;20454;-71
2023/06/16 06:23:13;;;;;;;56.87;2.50;;;;;;;;;;5070348;28;20605;-71
2023/06/16 06:25:42;;;;;;;57.20;2.40;;;;;;;;;;5070726;28;20447;-71
2023/06/16 06:28:09;;;;;;;57.20;2.47;;;;;;;;;;5072664;28;20976;-71
2023/06/16 06:30:37;;;;;;;57.50;2.83;;;;;;;;;;5073784;28;20451;-71
2023/06/16 06:33:05;;;;;;;57.00;2.50;;;;;;;;;;5075156;28;20544;-71
2023/06/16 06:35:33;;;;;;;57.10;2.30;;;;;;;;;;5074008;28;20451;-71
2023/06/16 06:38:00;;;;;;;58.77;3.67;;;;;;;;;;5074025;28;20525;-71
2023/06/16 06:40:27;;;;;;;57.30;2.43;;;;;;;;;;5073479;28;20564;-70
2023/06/16 06:42:55;;;;;;;56.57;2.10;;;;;;;;;;5074138;28;20580;-71
2023/06/16 06:45:22;;;;;;;57.10;2.50;;;;;;;;;;5074086;28;20538;-71
2023/06/16 06:47:49;;;;;;;57.10;2.50;;;;;;;;;;5073927;28;20967;-71
2023/06/16 06:50:16;;;;;;;57.07;2.27;;;;;;;;;;5073414;28;20439;-71
2023/06/16 06:52:44;;;;;;;57.57;2.80;;;;;;;;;;5073971;28;20843;-72
2023/06/16 06:55:12;;;;;;;56.80;2.17;;;;;;;;;;5073900;28;20458;-71
2023/06/16 06:57:40;;;;;;;57.00;2.60;;;;;;;;;;5073825;28;20451;-71
2023/06/16 07:00:08;;;;;;;56.53;2.20;;;;;;;;;;5073202;28;20479;-72
2023/06/16 07:02:35;;;;;;;57.40;2.73;;;;;;;;;;5073799;28;20520;-72
2023/06/16 07:05:03;;;;;;;57.30;2.67;;;;;;;;;;5073692;28;20453;-71
2023/06/16 07:07:30;;;;;;;56.90;2.13;;;;;;;;;;5073552;28;20447;-71
2023/06/16 07:09:58;;;;;;;57.50;3.03;;;;;;;;;;5072884;28;20447;-71
2023/06/16 07:12:25;;;;;;;57.37;2.30;;;;;;;;;;5073620;28;20819;-72
2023/06/16 07:14:53;;;;;;;57.10;2.30;;;;;;;;;;5073494;28;20451;-71
2023/06/16 07:17:20;;;;;;;57.00;2.17;;;;;;;;;;5073474;28;20454;-72
2023/06/16 07:19:47;;;;;;;57.73;3.13;;;;;;;;;;5072795;28;20483;-71
2023/06/16 07:22:14;;;;;;;57.60;2.67;;;;;;;;;;5073490;28;20447;-72
2023/06/16 07:24:41;;;;;;;56.77;2.20;;;;;;;;;;5073540;28;20450;-71
2023/06/16 07:27:10;;;;;;;56.93;2.30;;;;;;;;;;5071468;28;20558;-72
2023/06/16 07:29:37;;;;;;;57.97;2.93;;;;;;;;;;5072154;28;20443;-72
2023/06/16 07:32:05;;;;;;;56.77;2.20;;;;;;;;;;5073179;28;20458;-72
2023/06/16 07:34:33;;;;;;;57.63;2.63;;;;;;;;;;5072987;28;20481;-72
2023/06/16 07:37:00;;;;;;;57.07;2.60;;;;;;;;;;5073043;28;20447;-72
2023/06/16 07:39:28;;;;;;;57.17;2.37;;;;;;;;;;5071330;28;20479;-72
2023/06/16 07:41:55;;;;;;;56.97;2.50;;;;;;;;;;5073076;28;20822;-72
2023/06/16 07:44:23;;;;;;;57.27;2.20;;;;;;;;;;5061429;28;20471;-71
2023/06/16 07:46:50;;;;;;;56.57;2.57;;;;;;;;;;5072104;28;20459;-71
2023/06/16 07:49:17;;;;;;;58.13;3.00;;;;;;;;;;5071783;28;20466;-71
2023/06/16 07:51:45;;;;;;;56.87;2.20;;;;;;;;;;5072363;28;20448;-71
2023/06/16 07:54:12;;;;;;;56.73;2.77;;;;;;;;;;5072066;28;20463;-71
2023/06/16 07:56:40;;;;;;;56.67;2.30;;;;;;;;;;5071888;28;20462;-70
2023/06/16 07:59:07;;;;;;;58.17;2.20;;;;;;;;;;5071764;28;20494;-71
2023/06/16 08:01:36;;;;;;;56.67;2.40;;;;;;;;;;5072687;28;20470;-71
2023/06/16 08:04:03;;;;;;;57.10;2.50;;;;;;;;;;5072577;28;20463;-71
2023/06/16 08:06:30;;;;;;;56.70;2.10;;;;;;;;;;5072595;28;20505;-71
2023/06/16 08:08:57;;;;;;;57.40;2.70;;;;;;;;;;5071583;28;20455;-71
2023/06/16 08:11:24;;;;;;;57.60;2.83;;;;;;;;;;5072031;28;20462;-72
2023/06/16 08:13:52;;;;;;;57.10;2.37;;;;;;;;;;5072410;28;20467;-71
2023/06/16 08:16:20;;;;;;;56.73;2.43;;;;;;;;;;5072310;28;20447;-71
2023/06/16 08:18:50;;;;;;;56.80;2.90;;;;;;;;;;5071627;28;20491;-71
2023/06/16 08:21:17;;;;;;;57.40;2.30;;;;;;;;;;5072416;28;20439;-71
2023/06/16 08:23:44;;;;;;;56.80;2.83;;;;;;;;;;5071890;28;20482;-70
2023/06/16 08:26:11;;;;;;;58.03;2.80;;;;;;;;;;5072072;28;20457;-71
2023/06/16 08:28:40;;;;;;;57.67;2.63;;;;;;;;;;5071421;28;20444;-70
2023/06/16 08:31:07;;;;;;;57.00;2.40;;;;;;;;;;5072124;28;20448;-72
2023/06/16 08:33:34;;;;;;;57.30;2.70;;;;;;;;;;5071798;28;20463;-72
2023/06/16 08:36:03;;;;;;;56.90;2.43;;;;;;;;;;5071702;28;20459;-71
2023/06/16 08:38:31;;;;;;;57.40;2.83;;;;;;;;;;5071358;28;20451;-71
2023/06/16 08:40:58;;;;;;;58.60;2.47;;;;;;;;;;5071888;28;20486;-71
2023/06/16 08:43:27;;;;;;;56.93;2.00;;;;;;;;;;5072076;28;20471;-71
2023/06/16 08:45:54;;;;;;;57.10;2.77;;;;;;;;;;5071801;28;20452;-71
2023/06/16 08:48:21;;;;;;;57.47;2.60;;;;;;;;;;5071773;28;20456;-71
2023/06/16 08:50:48;;;;;;;56.87;2.50;;;;;;;;;;5070440;28;20454;-72
2023/06/16 08:53:22;;;;;;;56.77;2.10;;;;;;;;;;5071634;28;20471;-71
2023/06/16 08:55:51;;;;;;;57.67;2.40;;;;;;;;;;5071170;28;20471;-71
2023/06/16 08:58:20;;;;;;;58.10;2.47;;;;;;;;;;5071406;28;20955;-71
2023/06/16 09:00:48;;;;;;;57.30;2.47;;;;;;;;;;5070907;28;20887;-72
2023/06/16 09:03:17;;;;;;;56.17;2.10;;;;;;;;;;5071614;28;20559;-71
2023/06/16 09:05:45;;;;;;;56.50;2.40;;;;;;;;;;5071091;28;21113;-71
2023/06/16 09:08:12;;;;;;;57.00;2.30;;;;;;;;;;5071175;28;20975;-71
2023/06/16 09:10:40;;;;;;;57.57;2.40;;;;;;;;;;5070583;28;20997;-71
2023/06/16 09:13:08;;;;;;;57.10;2.30;;;;;;;;;;5071264;28;20475;-70
2023/06/16 09:15:35;;;;;;;57.50;2.40;;;;;;;;;;5071273;28;20479;-72
2023/06/16 09:18:06;;;;;;;56.37;2.40;;;;;;;;;;5071083;28;20530;-72
2023/06/16 09:20:34;;;;;;;56.37;1.80;;;;;;;;;;5070721;28;20494;-71
2023/06/16 09:23:05;;;;;;;56.87;2.13;;;;;;;;;;5071413;28;20466;-71
2023/06/16 09:25:33;;;;;;;56.60;2.00;;;;;;;;;;5066287;28;20458;-69
2023/06/16 09:28:06;;;;;;;56.60;1.90;;;;;;;;;;5071799;28;21051;-68
2023/06/16 09:30:35;;;;;;;57.47;2.63;;;;;;;;;;5062312;28;20447;-69
2023/06/16 09:33:02;;;;;;;59.50;2.87;;;;;;;;;;5059442;28;20465;-70
2023/06/16 09:35:29;;;;;;;56.57;2.20;;;;;;;;;;5069240;28;20447;-70
2023/06/16 09:37:57;;;;;;;56.90;2.30;;;;;;;;;;5071147;28;20439;-69
2023/06/16 09:40:26;;;;;;;57.10;2.10;;;;;;;;;;5070540;28;20478;-70
2023/06/16 09:42:54;;;;;;;56.70;2.40;;;;;;;;;;5070906;28;20479;-69
2023/06/16 09:45:22;;;;;;;56.57;2.00;;;;;;;;;;5066697;28;20904;-69
2023/06/16 09:47:50;;;;;;;61.70;2.33;;;;;;;;;;5067047;28;20452;-70
2023/06/16 09:50:18;;;;;;;56.57;1.97;;;;;;;;;;5070429;28;20450;-69
2023/06/16 09:52:45;;;;;;;57.10;2.47;;;;;;;;;;5070962;28;20473;-70
2023/06/16 09:55:13;;;;;;;56.70;1.90;;;;;;;;;;5071157;28;20447;-70
2023/06/16 09:57:40;;;;;;;56.80;2.43;;;;;;;;;;5070926;28;20435;-70
2023/06/16 10:00:11;;;;;;;56.50;2.50;;;;;;;;;;5070355;28;20487;-70
2023/06/16 10:02:40;;;;;;;56.47;2.60;;;;;;;;;;5072436;28;20886;-70
2023/06/16 10:05:10;;;;;;;56.80;2.00;;;;;;;;;;5074884;28;20534;-70
2023/06/16 10:07:38;;;;;;;56.57;2.17;;;;;;;;;;5074677;28;20943;-70
2023/06/16 10:10:08;;;;;;;57.37;3.10;;;;;;;;;;5073971;28;20724;-70
2023/06/16 10:12:35;;;;;;;57.00;2.20;;;;;;;;;;5075004;28;20507;-70
2023/06/16 10:15:03;;;;;;;56.70;2.33;;;;;;;;;;5074475;28;20493;-70
2023/06/16 10:17:32;;;;;;;56.47;2.57;;;;;;;;;;5074597;28;20458;-71
2023/06/16 10:20:03;;;;;;;56.90;2.73;;;;;;;;;;5073699;28;20895;-70
2023/06/16 10:22:31;;;;;;;56.17;1.77;;;;;;;;;;5074317;28;20554;-70
2023/06/16 10:25:00;;;;;;;56.23;1.80;;;;;;;;;;5074258;28;20960;-70
2023/06/16 10:27:28;;;;;;;57.20;2.63;;;;;;;;;;5074437;28;20450;-70
2023/06/16 10:29:56;;;;;;;56.20;2.07;;;;;;;;;;5073537;28;20450;-70
2023/06/16 10:32:24;;;;;;;56.00;2.03;;;;;;;;;;5074528;28;20539;-71
2023/06/16 10:34:56;;;;;;;56.10;1.90;;;;;;;;;;5074421;28;20451;-68
2023/06/16 10:37:25;;;;;;;56.07;2.07;;;;;;;;;;5073039;28;20470;-67
2023/06/16 10:39:56;;;;;;;55.60;1.53;;;;;;;;;;5068194;28;20983;-68
2023/06/16 10:42:23;;;;;;;57.33;2.90;;;;;;;;;;5072657;28;20458;-69
2023/06/16 10:44:50;;;;;;;55.23;1.90;;;;;;;;;;5069749;28;20452;-67
2023/06/16 10:47:35;;;;;;;55.30;2.00;;;;;;;;;;5070291;28;20450;-69
2023/06/16 10:50:03;;;;;;;55.37;2.20;;;;;;;;;;5073464;28;20436;-69
2023/06/16 10:52:35;;;;;;;55.60;1.77;;;;;;;;;;5073706;28;21048;-68
2023/06/16 10:55:19;;;;;;;56.37;2.63;;;;;;;;;;5073753;28;20454;-68
2023/06/16 10:57:46;;;;;;;55.70;1.93;;;;;;;;;;5073974;28;20817;-68
2023/06/16 11:00:16;;;;;;;55.80;2.00;;;;;;;;;;5072698;28;20479;-68
2023/06/16 11:02:49;;;;;;;55.70;2.30;;;;;;;;;;5053764;28;20472;-68
2023/06/16 11:05:18;;;;;;;55.77;2.30;;;;;;;;;;5053670;28;20745;-68
2023/06/16 11:08:08;;;;;;;55.67;1.97;;;;;;;;;;5053496;28;20490;-68
2023/06/16 11:10:48;;;;;;;55.80;2.40;;;;;;;;;;5052506;28;20456;-68
2023/06/16 11:13:15;;;;;;;55.73;2.13;;;;;;;;;;5052974;28;20526;-68
2023/06/16 11:15:43;;;;;;;55.47;1.70;;;;;;;;;;5052776;28;20444;-68
2023/06/16 11:18:10;;;;;;;55.77;1.80;;;;;;;;;;5053808;28;20453;-68
2023/06/16 11:20:38;;;;;;;55.63;2.00;;;;;;;;;;5052758;28;20490;-68
2023/06/16 11:23:06;;;;;;;55.47;2.17;;;;;;;;;;5053361;28;20661;-69
2023/06/16 11:25:34;;;;;;;55.27;1.93;;;;;;;;;;5053399;28;20480;-68
2023/06/16 11:28:01;;;;;;;55.37;1.70;;;;;;;;;;5058751;28;20502;-68
2023/06/16 11:30:30;;;;;;;55.43;1.70;;;;;;;;;;5065979;28;20455;-69
2023/06/16 11:32:58;;;;;;;55.37;1.80;;;;;;;;;;5067120;28;20483;-68
2023/06/16 11:35:30;;;;;;;55.30;1.60;;;;;;;;;;5069125;28;20451;-69
2023/06/16 11:37:58;;;;;;;55.17;2.03;;;;;;;;;;5066652;28;20501;-69
2023/06/16 11:40:27;;;;;;;55.47;2.00;;;;;;;;;;5072225;28;20494;-68
2023/06/16 11:42:56;;;;;;;55.80;2.43;;;;;;;;;;5072041;28;20467;-68
2023/06/16 11:45:23;;;;;;;55.10;1.70;;;;;;;;;;5072625;28;20505;-69
2023/06/16 11:47:50;;;;;;;55.27;2.03;;;;;;;;;;5072001;28;20447;-68
2023/06/16 11:50:17;;;;;;;55.40;1.80;;;;;;;;;;5071726;28;20827;-69
2023/06/16 11:52:45;;;;;;;55.10;2.07;;;;;;;;;;5072368;28;20521;-69
2023/06/16 11:55:12;;;;;;;55.30;2.20;;;;;;;;;;5072327;28;20493;-68
2023/06/16 11:57:41;;;;;;;55.30;1.70;;;;;;;;;;5072869;28;20500;-69
2023/06/16 12:00:09;;;;;;;54.90;1.70;;;;;;;;;;5071914;28;20454;-68
2023/06/16 12:02:36;;;;;;;55.60;2.50;;;;;;;;;;5072553;28;20471;-69
2023/06/16 12:05:05;;;;;;;55.33;2.13;;;;;;;;;;5072844;28;20448;-69
2023/06/16 12:07:32;;;;;;;55.30;1.70;;;;;;;;;;5072196;28;20958;-69
2023/06/16 12:10:03;;;;;;;55.17;1.87;;;;;;;;;;5071653;28;20931;-69
2023/06/16 12:12:30;;;;;;;55.27;2.00;;;;;;;;;;5072392;28;20498;-69
2023/06/16 12:14:59;;;;;;;55.40;2.00;;;;;;;;;;5072276;28;20963;-68
2023/06/16 12:17:26;;;;;;;55.40;2.50;;;;;;;;;;5072590;28;20453;-68
2023/06/16 12:19:54;;;;;;;55.23;2.30;;;;;;;;;;5071529;28;20796;-69
2023/06/16 12:22:21;;;;;;;60.53;3.03;;;;;;;;;;5072221;28;20884;-68
2023/06/16 12:24:49;;;;;;;55.37;2.03;;;;;;;;;;5071665;28;20774;-69
2023/06/16 12:27:24;;;;;;;54.97;1.87;;;;;;;;;;5072196;28;20455;-69
2023/06/16 12:29:56;;;;;;;54.87;1.70;;;;;;;;;;5071068;28;20437;-68
2023/06/16 12:32:30;;;;;;;55.43;2.13;;;;;;;;;;5071664;28;20971;-69
2023/06/16 12:34:57;;;;;;;55.10;2.30;;;;;;;;;;5071788;28;20436;-69
2023/06/16 12:37:26;;;;;;;55.47;1.97;;;;;;;;;;5071792;28;20443;-69
2023/06/16 12:39:59;;;;;;;55.47;2.40;;;;;;;;;;5071245;28;20447;-69
2023/06/16 12:42:29;;;;;;;55.17;1.80;;;;;;;;;;5071538;28;20962;-69
2023/06/16 12:44:59;;;;;;;55.70;1.90;;;;;;;;;;5071852;28;20479;-69
2023/06/16 12:47:26;;;;;;;55.50;1.80;;;;;;;;;;5071704;28;20455;-69
2023/06/16 12:49:55;;;;;;;55.50;2.20;;;;;;;;;;5070976;28;20450;-69
2023/06/16 12:52:23;;;;;;;55.80;2.63;;;;;;;;;;5071526;28;20489;-71
2023/06/16 12:54:51;;;;;;;54.93;1.70;;;;;;;;;;5071623;28;20443;-68
2023/06/16 12:57:18;;;;;;;55.50;2.70;;;;;;;;;;5071224;28;20459;-68
2023/06/16 12:59:45;;;;;;;55.40;2.07;;;;;;;;;;5070693;28;20455;-68
2023/06/16 13:02:12;;;;;;;56.00;2.50;;;;;;;;;;5071454;28;20443;-68
2023/06/16 13:04:40;;;;;;;56.30;2.83;;;;;;;;;;5071926;28;20741;-68
2023/06/16 13:07:08;;;;;;;56.30;2.70;;;;;;;;;;5071176;28;20879;-68
2023/06/16 13:09:35;;;;;;;54.97;1.70;;;;;;;;;;5070691;28;20447;-68
2023/06/16 13:12:03;;;;;;;55.27;2.23;;;;;;;;;;5071163;28;20483;-68
2023/06/16 13:14:30;;;;;;;55.13;1.97;;;;;;;;;;5071143;28;20474;-68
2023/06/16 13:16:57;;;;;;;55.40;2.00;;;;;;;;;;5071434;28;20470;-68
2023/06/16 13:19:24;;;;;;;55.87;2.33;;;;;;;;;;5070708;28;20450;-68
2023/06/16 13:21:52;;;;;;;55.57;2.13;;;;;;;;;;5071299;28;20439;-68
2023/06/16 13:24:20;;;;;;;56.83;2.30;;;;;;;;;;5071261;28;20474;-68
2023/06/16 13:26:48;;;;;;;55.17;1.83;;;;;;;;;;5068465;28;20452;-68
2023/06/16 13:29:15;;;;;;;55.30;2.10;;;;;;;;;;5061384;28;20452;-68
2023/06/16 13:31:42;;;;;;;55.57;2.23;;;;;;;;;;5062492;28;21007;-68
2023/06/16 13:34:09;;;;;;;55.00;1.93;;;;;;;;;;5066177;28;20921;-68
2023/06/16 13:36:36;;;;;;;55.00;1.90;;;;;;;;;;5070322;28;20813;-68
2023/06/16 13:39:04;;;;;;;55.90;2.60;;;;;;;;;;5070434;28;20440;-68
2023/06/16 13:41:32;;;;;;;55.00;1.70;;;;;;;;;;5065260;28;20864;-68
2023/06/16 13:43:59;;;;;;;55.17;2.03;;;;;;;;;;5070719;28;20467;-68
2023/06/16 13:46:26;;;;;;;55.10;2.50;;;;;;;;;;5071162;28;20458;-68
2023/06/16 13:48:53;;;;;;;55.23;2.27;;;;;;;;;;5070194;28;20454;-68
2023/06/16 13:51:21;;;;;;;55.30;2.00;;;;;;;;;;5070759;28;20487;-68
2023/06/16 13:53:48;;;;;;;55.83;2.37;;;;;;;;;;5071049;28;20479;-68
2023/06/16 13:56:15;;;;;;;56.30;2.37;;;;;;;;;;5070782;28;20892;-68
2023/06/16 13:58:44;;;;;;;55.30;2.00;;;;;;;;;;5069339;28;20443;-68
2023/06/16 14:01:11;;;;;;;55.27;2.20;;;;;;;;;;5066402;28;20534;-68
2023/06/16 14:03:38;;;;;;;55.10;1.70;;;;;;;;;;5070598;28;20472;-68
2023/06/16 14:06:06;;;;;;;55.40;2.07;;;;;;;;;;5070888;28;20443;-68
2023/06/16 14:08:33;;;;;;;55.20;1.70;;;;;;;;;;5070250;28;21073;-68
2023/06/16 14:11:02;;;;;;;55.37;2.20;;;;;;;;;;5070899;28;20479;-68
2023/06/16 14:13:29;;;;;;;55.83;2.03;;;;;;;;;;5070830;28;20467;-68
2023/06/16 14:15:57;;;;;;;55.27;2.10;;;;;;;;;;5070429;28;20447;-68
2023/06/16 14:18:24;;;;;;;55.40;2.20;;;;;;;;;;5070935;28;20509;-69
2023/06/16 14:20:51;;;;;;;55.37;2.20;;;;;;;;;;5070131;28;20444;-68
2023/06/16 14:23:19;;;;;;;56.03;2.27;;;;;;;;;;5070708;28;20476;-68
2023/06/16 14:25:46;;;;;;;56.90;2.60;;;;;;;;;;5070649;28;20458;-68
2023/06/16 14:28:13;;;;;;;56.50;1.77;;;;;;;;;;5071198;28;20443;-68
2023/06/16 14:30:40;;;;;;;57.07;2.83;;;;;;;;;;5070241;28;20447;-69
2023/06/16 14:33:09;;;;;;;56.60;2.67;;;;;;;;;;5070549;28;20459;-69
2023/06/16 14:35:36;;;;;;;56.10;2.30;;;;;;;;;;5070583;28;20451;-68